< < Back
Terminal Aerodrome Forecast


Current Version              Previous Versions:   1  2  3  4  5  6  7  8  9  

Terminal Aerodrome Forecast

347
FTUS42 KFFC 210500 RRA
TAFFTY
TAF
KFTY 210542Z 2106/2206 00000KT P6SM FEW150
     FM211400 30006KT P6SM FEW250
     FM211700 32009G14KT P6SM FEW250
     FM220000 33006KT P6SM SKC=



Latest METAR

155
SAUS70 KWBC 220800 RRE
MTRFTY
METAR KFTY 220753Z 34003KT 10SM CLR 11/ A3005 RMK AO2 SLP170 T0106 $


USA.gov is the U.S. government's official web portal to all federal, state and local government web resources and services.